sensor_id;sensor_type;location;lat;lon;timestamp;temperature;humidity
39665;DHT22;26679;50.872;4.332;2023-04-08T00:02:20;10.90;99.90
39665;DHT22;26679;50.872;4.332;2023-04-08T00:04:46;11.00;99.90
39665;DHT22;26679;50.872;4.332;2023-04-08T00:07:11;11.00;99.90
39665;DHT22;26679;50.872;4.332;2023-04-08T00:09:37;11.00;99.90
39665;DHT22;26679;50.872;4.332;2023-04-08T00:12:03;11.00;99.90
39665;DHT22;26679;50.872;4.332;2023-04-08T00:14:28;10.90;99.90
39665;DHT22;26679;50.872;4.332;2023-04-08T00:16:54;10.80;99.90
39665;DHT22;26679;50.872;4.332;2023-04-08T00:19:19;10.90;99.90
39665;DHT22;26679;50.872;4.332;2023-04-08T00:21:45;10.90;99.90
39665;DHT22;26679;50.872;4.332;2023-04-08T00:24:11;11.00;99.90
39665;DHT22;26679;50.872;4.332;2023-04-08T00:29:14;10.90;99.90
39665;DHT22;26679;50.872;4.332;2023-04-08T00:31:40;10.90;99.90
39665;DHT22;26679;50.872;4.332;2023-04-08T00:34:06;10.90;99.90
39665;DHT22;26679;50.872;4.332;2023-04-08T00:36:31;10.90;99.90
39665;DHT22;26679;50.872;4.332;2023-04-08T00:38:57;11.00;99.90
39665;DHT22;26679;50.872;4.332;2023-04-08T00:41:23;10.90;99.90
39665;DHT22;26679;50.872;4.332;2023-04-08T00:43:49;10.80;99.90
39665;DHT22;26679;50.872;4.332;2023-04-08T00:46:14;10.90;99.90
39665;DHT22;26679;50.872;4.332;2023-04-08T00:48:40;10.90;99.90
39665;DHT22;26679;50.872;4.332;2023-04-08T00:51:06;10.90;99.90
39665;DHT22;26679;50.872;4.332;2023-04-08T00:53:32;10.80;99.90
39665;DHT22;26679;50.872;4.332;2023-04-08T00:55:57;10.90;99.90
39665;DHT22;26679;50.872;4.332;2023-04-08T00:58:25;10.90;99.90
39665;DHT22;26679;50.872;4.332;2023-04-08T01:00:56;10.90;99.90
39665;DHT22;26679;50.872;4.332;2023-04-08T01:06:35;10.80;99.90
39665;DHT22;26679;50.872;4.332;2023-04-08T01:08:51;10.90;99.90
39665;DHT22;26679;50.872;4.332;2023-04-08T01:11:17;10.80;99.90
39665;DHT22;26679;50.872;4.332;2023-04-08T01:13:44;10.80;99.90
39665;DHT22;26679;50.872;4.332;2023-04-08T01:16:11;10.80;99.90
39665;DHT22;26679;50.872;4.332;2023-04-08T01:18:37;10.80;99.90
39665;DHT22;26679;50.872;4.332;2023-04-08T01:21:03;10.90;99.90
39665;DHT22;26679;50.872;4.332;2023-04-08T01:25:58;10.90;99.90
39665;DHT22;26679;50.872;4.332;2023-04-08T01:28:25;10.90;99.90
39665;DHT22;26679;50.872;4.332;2023-04-08T01:30:51;10.90;99.90
39665;DHT22;26679;50.872;4.332;2023-04-08T01:33:19;11.00;99.90
39665;DHT22;26679;50.872;4.332;2023-04-08T01:35:46;11.00;99.90
39665;DHT22;26679;50.872;4.332;2023-04-08T01:38:16;11.00;99.90
39665;DHT22;26679;50.872;4.332;2023-04-08T01:40:42;10.90;99.90
39665;DHT22;26679;50.872;4.332;2023-04-08T01:43:08;10.80;99.90
39665;DHT22;26679;50.872;4.332;2023-04-08T01:45:35;10.80;99.90
39665;DHT22;26679;50.872;4.332;2023-04-08T01:48:00;10.70;99.90
39665;DHT22;26679;50.872;4.332;2023-04-08T01:50:26;10.70;99.90
39665;DHT22;26679;50.872;4.332;2023-04-08T01:52:53;10.70;99.90
39665;DHT22;26679;50.872;4.332;2023-04-08T01:55:19;10.70;99.90
39665;DHT22;26679;50.872;4.332;2023-04-08T01:57:48;10.70;99.90
39665;DHT22;26679;50.872;4.332;2023-04-08T02:00:15;10.70;99.90
39665;DHT22;26679;50.872;4.332;2023-04-08T02:02:42;10.80;99.90
39665;DHT22;26679;50.872;4.332;2023-04-08T02:05:08;10.80;99.90
39665;DHT22;26679;50.872;4.332;2023-04-08T02:07:34;10.80;99.90
39665;DHT22;26679;50.872;4.332;2023-04-08T02:09:59;10.70;99.90
39665;DHT22;26679;50.872;4.332;2023-04-08T02:12:25;10.70;99.90
39665;DHT22;26679;50.872;4.332;2023-04-08T02:14:52;10.70;99.90
39665;DHT22;26679;50.872;4.332;2023-04-08T02:17:19;10.80;99.90
39665;DHT22;26679;50.872;4.332;2023-04-08T02:19:47;10.70;99.90
39665;DHT22;26679;50.872;4.332;2023-04-08T02:22:18;10.70;99.90
39665;DHT22;26679;50.872;4.332;2023-04-08T02:24:47;10.80;99.90
39665;DHT22;26679;50.872;4.332;2023-04-08T02:27:14;10.70;99.90
39665;DHT22;26679;50.872;4.332;2023-04-08T02:29:41;10.70;99.90
39665;DHT22;26679;50.872;4.332;2023-04-08T02:32:07;10.80;99.90
39665;DHT22;26679;50.872;4.332;2023-04-08T02:34:33;10.80;99.90
39665;DHT22;26679;50.872;4.332;2023-04-08T02:36:59;10.80;99.90
39665;DHT22;26679;50.872;4.332;2023-04-08T02:39:31;10.70;99.90
39665;DHT22;26679;50.872;4.332;2023-04-08T02:41:57;10.80;99.90
39665;DHT22;26679;50.872;4.332;2023-04-08T02:44:22;10.90;99.90
39665;DHT22;26679;50.872;4.332;2023-04-08T02:46:48;10.80;99.90
39665;DHT22;26679;50.872;4.332;2023-04-08T02:49:13;10.80;99.90
39665;DHT22;26679;50.872;4.332;2023-04-08T02:51:39;10.70;99.90
39665;DHT22;26679;50.872;4.332;2023-04-08T02:54:04;10.80;99.90
39665;DHT22;26679;50.872;4.332;2023-04-08T02:56:30;10.80;99.90
39665;DHT22;26679;50.872;4.332;2023-04-08T02:58:55;10.80;99.90
39665;DHT22;26679;50.872;4.332;2023-04-08T03:01:21;10.70;99.90
39665;DHT22;26679;50.872;4.332;2023-04-08T03:03:46;10.70;99.90
39665;DHT22;26679;50.872;4.332;2023-04-08T03:06:12;10.60;99.90
39665;DHT22;26679;50.872;4.332;2023-04-08T03:08:37;10.50;99.90
39665;DHT22;26679;50.872;4.332;2023-04-08T03:11:03;10.50;99.90
39665;DHT22;26679;50.872;4.332;2023-04-08T03:13:28;10.40;99.90
39665;DHT22;26679;50.872;4.332;2023-04-08T03:15:54;10.30;99.90
39665;DHT22;26679;50.872;4.332;2023-04-08T03:18:19;10.30;99.90
39665;DHT22;26679;50.872;4.332;2023-04-08T03:20:45;10.30;99.90
39665;DHT22;26679;50.872;4.332;2023-04-08T03:23:11;10.30;99.90
39665;DHT22;26679;50.872;4.332;2023-04-08T03:41:05;10.50;99.90
39665;DHT22;26679;50.872;4.332;2023-04-08T03:43:30;10.40;99.90
39665;DHT22;26679;50.872;4.332;2023-04-08T03:45:56;10.40;99.90
39665;DHT22;26679;50.872;4.332;2023-04-08T03:48:22;10.40;99.90
39665;DHT22;26679;50.872;4.332;2023-04-08T03:50:47;10.50;99.90
39665;DHT22;26679;50.872;4.332;2023-04-08T03:53:13;10.50;99.90
39665;DHT22;26679;50.872;4.332;2023-04-08T03:55:39;10.50;99.90
39665;DHT22;26679;50.872;4.332;2023-04-08T03:58:04;10.50;99.90
39665;DHT22;26679;50.872;4.332;2023-04-08T04:00:30;10.40;99.90
39665;DHT22;26679;50.872;4.332;2023-04-08T04:02:55;10.40;99.90
39665;DHT22;26679;50.872;4.332;2023-04-08T04:05:21;10.40;99.90
39665;DHT22;26679;50.872;4.332;2023-04-08T04:07:46;10.40;99.90
39665;DHT22;26679;50.872;4.332;2023-04-08T04:10:12;10.50;99.90
39665;DHT22;26679;50.872;4.332;2023-04-08T04:12:37;10.50;99.90
39665;DHT22;26679;50.872;4.332;2023-04-08T04:15:03;10.30;99.90
39665;DHT22;26679;50.872;4.332;2023-04-08T04:17:29;10.50;99.90
39665;DHT22;26679;50.872;4.332;2023-04-08T04:19:54;10.50;99.90
39665;DHT22;26679;50.872;4.332;2023-04-08T04:22:20;10.50;99.90
39665;DHT22;26679;50.872;4.332;2023-04-08T04:24:46;10.50;99.90
39665;DHT22;26679;50.872;4.332;2023-04-08T04:27:12;10.50;99.90
39665;DHT22;26679;50.872;4.332;2023-04-08T04:29:38;10.50;99.90
39665;DHT22;26679;50.872;4.332;2023-04-08T04:32:04;10.50;99.90
39665;DHT22;26679;50.872;4.332;2023-04-08T04:34:29;10.40;99.90
39665;DHT22;26679;50.872;4.332;2023-04-08T04:36:55;10.40;99.90
39665;DHT22;26679;50.872;4.332;2023-04-08T04:39:20;10.50;99.90
39665;DHT22;26679;50.872;4.332;2023-04-08T04:41:46;10.50;99.90
39665;DHT22;26679;50.872;4.332;2023-04-08T04:44:13;10.50;99.90
39665;DHT22;26679;50.872;4.332;2023-04-08T04:46:39;10.40;99.90
39665;DHT22;26679;50.872;4.332;2023-04-08T04:49:05;10.40;99.90
39665;DHT22;26679;50.872;4.332;2023-04-08T04:51:30;10.40;99.90
39665;DHT22;26679;50.872;4.332;2023-04-08T04:53:57;10.50;99.90
39665;DHT22;26679;50.872;4.332;2023-04-08T04:56:22;10.50;99.90
39665;DHT22;26679;50.872;4.332;2023-04-08T04:58:48;10.50;99.90
39665;DHT22;26679;50.872;4.332;2023-04-08T05:01:13;10.50;99.90
39665;DHT22;26679;50.872;4.332;2023-04-08T05:03:39;10.50;99.90
39665;DHT22;26679;50.872;4.332;2023-04-08T05:06:05;10.50;99.90
39665;DHT22;26679;50.872;4.332;2023-04-08T05:08:30;10.40;99.90
39665;DHT22;26679;50.872;4.332;2023-04-08T05:10:56;10.50;99.90
39665;DHT22;26679;50.872;4.332;2023-04-08T05:13:23;10.50;99.90
39665;DHT22;26679;50.872;4.332;2023-04-08T05:15:49;10.50;99.90
39665;DHT22;26679;50.872;4.332;2023-04-08T05:18:14;10.30;99.90
39665;DHT22;26679;50.872;4.332;2023-04-08T05:20:40;11.30;99.90
39665;DHT22;26679;50.872;4.332;2023-04-08T05:23:05;10.50;99.90
39665;DHT22;26679;50.872;4.332;2023-04-08T05:25:32;10.50;99.90
39665;DHT22;26679;50.872;4.332;2023-04-08T05:27:57;10.60;99.90
39665;DHT22;26679;50.872;4.332;2023-04-08T05:30:23;10.60;99.90
39665;DHT22;26679;50.872;4.332;2023-04-08T05:32:48;10.60;99.90
39665;DHT22;26679;50.872;4.332;2023-04-08T05:35:14;10.70;99.90
39665;DHT22;26679;50.872;4.332;2023-04-08T05:37:39;10.60;99.90
39665;DHT22;26679;50.872;4.332;2023-04-08T05:40:05;10.70;99.90
39665;DHT22;26679;50.872;4.332;2023-04-08T05:42:31;10.70;99.90
39665;DHT22;26679;50.872;4.332;2023-04-08T05:44:56;10.70;99.90
39665;DHT22;26679;50.872;4.332;2023-04-08T05:47:22;10.60;99.90
39665;DHT22;26679;50.872;4.332;2023-04-08T05:49:48;10.70;99.90
39665;DHT22;26679;50.872;4.332;2023-04-08T05:52:13;10.80;99.90
39665;DHT22;26679;50.872;4.332;2023-04-08T05:54:41;10.80;99.90
39665;DHT22;26679;50.872;4.332;2023-04-08T05:57:07;10.80;99.90
39665;DHT22;26679;50.872;4.332;2023-04-08T05:59:32;10.80;99.90
39665;DHT22;26679;50.872;4.332;2023-04-08T06:01:58;10.80;99.90
39665;DHT22;26679;50.872;4.332;2023-04-08T06:04:23;10.80;99.90
39665;DHT22;26679;50.872;4.332;2023-04-08T06:06:48;10.60;99.90
39665;DHT22;26679;50.872;4.332;2023-04-08T06:09:14;10.60;99.90
39665;DHT22;26679;50.872;4.332;2023-04-08T06:11:40;10.70;99.90
39665;DHT22;26679;50.872;4.332;2023-04-08T06:14:05;10.80;99.90
39665;DHT22;26679;50.872;4.332;2023-04-08T06:16:31;10.80;99.90
39665;DHT22;26679;50.872;4.332;2023-04-08T06:18:57;10.80;99.90
39665;DHT22;26679;50.872;4.332;2023-04-08T06:21:22;10.80;99.90
39665;DHT22;26679;50.872;4.332;2023-04-08T06:23:48;10.70;99.90
39665;DHT22;26679;50.872;4.332;2023-04-08T06:26:13;10.70;99.90
39665;DHT22;26679;50.872;4.332;2023-04-08T06:28:39;10.80;99.90
39665;DHT22;26679;50.872;4.332;2023-04-08T06:31:05;10.80;99.90
39665;DHT22;26679;50.872;4.332;2023-04-08T06:33:30;10.90;99.90
39665;DHT22;26679;50.872;4.332;2023-04-08T06:36:02;10.80;99.90
39665;DHT22;26679;50.872;4.332;2023-04-08T06:38:28;10.90;99.90
39665;DHT22;26679;50.872;4.332;2023-04-08T06:40:53;11.00;99.90
39665;DHT22;26679;50.872;4.332;2023-04-08T06:43:19;11.00;99.90
39665;DHT22;26679;50.872;4.332;2023-04-08T06:45:44;11.10;99.90
39665;DHT22;26679;50.872;4.332;2023-04-08T06:48:10;11.00;99.90
39665;DHT22;26679;50.872;4.332;2023-04-08T06:50:36;11.10;99.90
39665;DHT22;26679;50.872;4.332;2023-04-08T06:53:01;11.00;99.90
39665;DHT22;26679;50.872;4.332;2023-04-08T06:55:27;11.00;99.90
39665;DHT22;26679;50.872;4.332;2023-04-08T06:57:52;11.00;99.90
39665;DHT22;26679;50.872;4.332;2023-04-08T07:00:18;11.10;99.90
39665;DHT22;26679;50.872;4.332;2023-04-08T07:02:43;11.10;99.90
39665;DHT22;26679;50.872;4.332;2023-04-08T07:05:09;11.10;99.90
39665;DHT22;26679;50.872;4.332;2023-04-08T07:07:35;11.10;99.90
39665;DHT22;26679;50.872;4.332;2023-04-08T07:10:00;11.20;99.90
39665;DHT22;26679;50.872;4.332;2023-04-08T07:12:26;11.30;99.90
39665;DHT22;26679;50.872;4.332;2023-04-08T07:14:51;11.30;99.90
39665;DHT22;26679;50.872;4.332;2023-04-08T07:17:17;11.40;99.90
39665;DHT22;26679;50.872;4.332;2023-04-08T07:19:43;11.50;99.90
39665;DHT22;26679;50.872;4.332;2023-04-08T07:22:08;11.60;99.90
39665;DHT22;26679;50.872;4.332;2023-04-08T07:24:34;11.80;99.90
39665;DHT22;26679;50.872;4.332;2023-04-08T07:26:59;11.80;99.90
39665;DHT22;26679;50.872;4.332;2023-04-08T07:29:25;11.90;99.90
39665;DHT22;26679;50.872;4.332;2023-04-08T07:31:52;12.00;99.90
39665;DHT22;26679;50.872;4.332;2023-04-08T07:34:17;12.00;99.90
39665;DHT22;26679;50.872;4.332;2023-04-08T07:36:43;12.00;99.90
39665;DHT22;26679;50.872;4.332;2023-04-08T07:39:10;12.00;99.90
39665;DHT22;26679;50.872;4.332;2023-04-08T07:41:35;12.10;99.90
39665;DHT22;26679;50.872;4.332;2023-04-08T07:44:01;12.20;99.90
39665;DHT22;26679;50.872;4.332;2023-04-08T07:46:26;12.10;99.90
39665;DHT22;26679;50.872;4.332;2023-04-08T07:48:53;12.10;99.90
39665;DHT22;26679;50.872;4.332;2023-04-08T07:51:20;12.10;99.90
39665;DHT22;26679;50.872;4.332;2023-04-08T07:56:31;12.30;99.90
39665;DHT22;26679;50.872;4.332;2023-04-08T07:58:57;12.50;99.90
39665;DHT22;26679;50.872;4.332;2023-04-08T08:01:23;12.70;99.90
39665;DHT22;26679;50.872;4.332;2023-04-08T08:03:49;12.70;99.90
39665;DHT22;26679;50.872;4.332;2023-04-08T08:06:14;12.70;99.90
39665;DHT22;26679;50.872;4.332;2023-04-08T08:08:40;12.50;99.90
39665;DHT22;26679;50.872;4.332;2023-04-08T08:11:06;12.40;99.90
39665;DHT22;26679;50.872;4.332;2023-04-08T08:13:32;12.50;99.90
39665;DHT22;26679;50.872;4.332;2023-04-08T08:15:57;12.60;99.90
39665;DHT22;26679;50.872;4.332;2023-04-08T08:18:23;12.50;99.90
39665;DHT22;26679;50.872;4.332;2023-04-08T08:20:48;12.50;99.90
39665;DHT22;26679;50.872;4.332;2023-04-08T08:23:14;12.50;99.90
39665;DHT22;26679;50.872;4.332;2023-04-08T08:25:40;12.50;99.90
39665;DHT22;26679;50.872;4.332;2023-04-08T08:28:06;12.40;99.90
39665;DHT22;26679;50.872;4.332;2023-04-08T08:30:32;12.50;99.90
39665;DHT22;26679;50.872;4.332;2023-04-08T08:32:57;12.50;99.90
39665;DHT22;26679;50.872;4.332;2023-04-08T08:35:24;12.50;99.90
39665;DHT22;26679;50.872;4.332;2023-04-08T08:37:50;12.50;99.90
39665;DHT22;26679;50.872;4.332;2023-04-08T08:40:16;12.50;99.90
39665;DHT22;26679;50.872;4.332;2023-04-08T08:42:41;12.30;99.90
39665;DHT22;26679;50.872;4.332;2023-04-08T08:45:07;12.30;99.90
39665;DHT22;26679;50.872;4.332;2023-04-08T08:47:34;12.40;99.90
39665;DHT22;26679;50.872;4.332;2023-04-08T08:50:00;11.90;99.90
39665;DHT22;26679;50.872;4.332;2023-04-08T08:52:25;12.70;99.90
39665;DHT22;26679;50.872;4.332;2023-04-08T08:54:57;12.70;99.90
39665;DHT22;26679;50.872;4.332;2023-04-08T08:57:23;12.70;99.90
39665;DHT22;26679;50.872;4.332;2023-04-08T08:59:49;12.60;99.90
39665;DHT22;26679;50.872;4.332;2023-04-08T09:07:28;12.70;99.90
39665;DHT22;26679;50.872;4.332;2023-04-08T09:09:54;12.80;99.90
39665;DHT22;26679;50.872;4.332;2023-04-08T09:12:21;12.90;99.90
39665;DHT22;26679;50.872;4.332;2023-04-08T09:14:46;12.90;99.90
39665;DHT22;26679;50.872;4.332;2023-04-08T09:17:12;13.10;99.90
39665;DHT22;26679;50.872;4.332;2023-04-08T09:19:38;13.20;99.90
39665;DHT22;26679;50.872;4.332;2023-04-08T09:22:07;13.40;99.90
39665;DHT22;26679;50.872;4.332;2023-04-08T09:24:33;13.60;99.90
39665;DHT22;26679;50.872;4.332;2023-04-08T09:26:59;13.60;99.90
39665;DHT22;26679;50.872;4.332;2023-04-08T09:29:25;13.70;99.90
39665;DHT22;26679;50.872;4.332;2023-04-08T09:31:52;13.70;99.90
39665;DHT22;26679;50.872;4.332;2023-04-08T09:34:18;13.60;99.90
39665;DHT22;26679;50.872;4.332;2023-04-08T09:36:46;13.60;99.90
39665;DHT22;26679;50.872;4.332;2023-04-08T09:41:49;13.30;99.90
39665;DHT22;26679;50.872;4.332;2023-04-08T09:44:16;13.00;99.90
39665;DHT22;26679;50.872;4.332;2023-04-08T09:54:12;13.10;99.90
39665;DHT22;26679;50.872;4.332;2023-04-08T09:59:16;13.30;99.90
39665;DHT22;26679;50.872;4.332;2023-04-08T10:01:49;13.20;99.90
39665;DHT22;26679;50.872;4.332;2023-04-08T10:04:15;13.50;99.90
39665;DHT22;26679;50.872;4.332;2023-04-08T10:06:43;13.10;99.90
39665;DHT22;26679;50.872;4.332;2023-04-08T10:09:15;13.50;99.90
39665;DHT22;26679;50.872;4.332;2023-04-08T10:11:41;14.40;99.90
39665;DHT22;26679;50.872;4.332;2023-04-08T10:14:09;14.90;99.90
39665;DHT22;26679;50.872;4.332;2023-04-08T10:16:35;15.20;99.90
39665;DHT22;26679;50.872;4.332;2023-04-08T10:19:01;16.00;99.90
39665;DHT22;26679;50.872;4.332;2023-04-08T10:21:40;16.30;99.90
39665;DHT22;26679;50.872;4.332;2023-04-08T10:24:13;17.70;99.90
39665;DHT22;26679;50.872;4.332;2023-04-08T10:26:42;17.70;99.90
39665;DHT22;26679;50.872;4.332;2023-04-08T10:31:48;16.10;99.90
39665;DHT22;26679;50.872;4.332;2023-04-08T10:34:21;16.80;99.90
39665;DHT22;26679;50.872;4.332;2023-04-08T10:36:49;16.30;99.90
39665;DHT22;26679;50.872;4.332;2023-04-08T10:39:17;15.90;99.90
39665;DHT22;26679;50.872;4.332;2023-04-08T10:41:46;16.10;99.90
39665;DHT22;26679;50.872;4.332;2023-04-08T10:44:22;16.10;99.90
39665;DHT22;26679;50.872;4.332;2023-04-08T10:46:52;16.10;99.90
39665;DHT22;26679;50.872;4.332;2023-04-08T10:49:23;15.90;99.90
39665;DHT22;26679;50.872;4.332;2023-04-08T10:51:56;15.80;99.90
39665;DHT22;26679;50.872;4.332;2023-04-08T10:54:22;15.30;99.90
39665;DHT22;26679;50.872;4.332;2023-04-08T10:56:51;15.00;99.90
39665;DHT22;26679;50.872;4.332;2023-04-08T11:02:14;14.90;99.90
39665;DHT22;26679;50.872;4.332;2023-04-08T11:04:43;15.00;99.90
39665;DHT22;26679;50.872;4.332;2023-04-08T11:07:12;14.70;99.90
39665;DHT22;26679;50.872;4.332;2023-04-08T11:09:46;14.70;99.90
39665;DHT22;26679;50.872;4.332;2023-04-08T11:12:16;14.50;99.90
39665;DHT22;26679;50.872;4.332;2023-04-08T11:14:46;14.40;99.90
39665;DHT22;26679;50.872;4.332;2023-04-08T11:17:14;14.10;99.90
39665;DHT22;26679;50.872;4.332;2023-04-08T11:19:44;13.30;99.90
39665;DHT22;26679;50.872;4.332;2023-04-08T11:22:12;14.40;99.90
39665;DHT22;26679;50.872;4.332;2023-04-08T11:24:38;14.50;99.90
39665;DHT22;26679;50.872;4.332;2023-04-08T11:27:04;14.70;99.90
39665;DHT22;26679;50.872;4.332;2023-04-08T11:29:32;14.80;99.90
39665;DHT22;26679;50.872;4.332;2023-04-08T11:32:01;14.50;99.90
39665;DHT22;26679;50.872;4.332;2023-04-08T11:34:27;14.80;99.90
39665;DHT22;26679;50.872;4.332;2023-04-08T11:36:55;14.70;99.90
39665;DHT22;26679;50.872;4.332;2023-04-08T11:39:22;14.90;99.90
39665;DHT22;26679;50.872;4.332;2023-04-08T11:41:54;14.20;99.90
39665;DHT22;26679;50.872;4.332;2023-04-08T11:44:28;15.10;99.90
39665;DHT22;26679;50.872;4.332;2023-04-08T11:46:54;14.90;99.90
39665;DHT22;26679;50.872;4.332;2023-04-08T11:49:22;15.10;99.90
39665;DHT22;26679;50.872;4.332;2023-04-08T11:51:57;15.30;99.90
39665;DHT22;26679;50.872;4.332;2023-04-08T11:54:29;15.40;99.90
39665;DHT22;26679;50.872;4.332;2023-04-08T11:57:01;15.40;99.90
39665;DHT22;26679;50.872;4.332;2023-04-08T11:59:27;14.90;99.90
39665;DHT22;26679;50.872;4.332;2023-04-08T12:02:13;13.80;99.90
39665;DHT22;26679;50.872;4.332;2023-04-08T12:04:41;15.50;99.90
39665;DHT22;26679;50.872;4.332;2023-04-08T12:07:07;15.30;99.90
39665;DHT22;26679;50.872;4.332;2023-04-08T12:09:37;16.30;99.90
39665;DHT22;26679;50.872;4.332;2023-04-08T12:12:09;16.10;99.90
39665;DHT22;26679;50.872;4.332;2023-04-08T12:14:36;16.40;99.90
39665;DHT22;26679;50.872;4.332;2023-04-08T12:17:05;16.70;99.90
39665;DHT22;26679;50.872;4.332;2023-04-08T12:19:34;16.70;99.90
39665;DHT22;26679;50.872;4.332;2023-04-08T12:22:00;16.80;99.90
39665;DHT22;26679;50.872;4.332;2023-04-08T12:24:34;16.80;99.90
39665;DHT22;26679;50.872;4.332;2023-04-08T12:27:00;16.10;99.90
39665;DHT22;26679;50.872;4.332;2023-04-08T12:29:31;16.40;99.90
39665;DHT22;26679;50.872;4.332;2023-04-08T12:32:00;16.20;99.90
39665;DHT22;26679;50.872;4.332;2023-04-08T12:34:37;16.10;99.90
39665;DHT22;26679;50.872;4.332;2023-04-08T12:37:07;16.10;99.90
39665;DHT22;26679;50.872;4.332;2023-04-08T12:39:35;15.40;99.90
39665;DHT22;26679;50.872;4.332;2023-04-08T12:47:12;16.20;99.90
39665;DHT22;26679;50.872;4.332;2023-04-08T12:49:50;16.70;99.90
39665;DHT22;26679;50.872;4.332;2023-04-08T12:52:19;16.10;99.90
39665;DHT22;26679;50.872;4.332;2023-04-08T12:54:44;16.20;99.90
39665;DHT22;26679;50.872;4.332;2023-04-08T12:57:13;16.40;99.90
39665;DHT22;26679;50.872;4.332;2023-04-08T12:59:42;16.10;99.90
39665;DHT22;26679;50.872;4.332;2023-04-08T13:02:11;16.60;99.90
39665;DHT22;26679;50.872;4.332;2023-04-08T13:04:37;16.70;99.90
39665;DHT22;26679;50.872;4.332;2023-04-08T13:07:05;16.70;99.90
39665;DHT22;26679;50.872;4.332;2023-04-08T13:12:12;17.50;99.90
39665;DHT22;26679;50.872;4.332;2023-04-08T13:15:04;16.90;99.90
39665;DHT22;26679;50.872;4.332;2023-04-08T13:17:43;19.60;99.50
39665;DHT22;26679;50.872;4.332;2023-04-08T13:22:52;20.20;97.90
39665;DHT22;26679;50.872;4.332;2023-04-08T13:25:24;21.00;97.10
39665;DHT22;26679;50.872;4.332;2023-04-08T13:27:59;21.80;96.20
39665;DHT22;26679;50.872;4.332;2023-04-08T13:30:25;21.50;95.20
39665;DHT22;26679;50.872;4.332;2023-04-08T13:35:29;20.00;95.30
39665;DHT22;26679;50.872;4.332;2023-04-08T13:37:55;19.80;95.80
39665;DHT22;26679;50.872;4.332;2023-04-08T13:40:23;19.40;96.10
39665;DHT22;26679;50.872;4.332;2023-04-08T13:42:52;18.80;96.50
39665;DHT22;26679;50.872;4.332;2023-04-08T13:45:27;18.40;97.10
39665;DHT22;26679;50.872;4.332;2023-04-08T13:47:55;17.80;97.30
39665;DHT22;26679;50.872;4.332;2023-04-08T13:50:32;19.40;98.10
39665;DHT22;26679;50.872;4.332;2023-04-08T14:10:59;22.30;94.00
39665;DHT22;26679;50.872;4.332;2023-04-08T14:13:28;21.60;94.00
39665;DHT22;26679;50.872;4.332;2023-04-08T14:15:57;20.00;94.00
39665;DHT22;26679;50.872;4.332;2023-04-08T14:18:31;21.70;94.20
39665;DHT22;26679;50.872;4.332;2023-04-08T14:21:05;21.20;94.30
39665;DHT22;26679;50.872;4.332;2023-04-08T14:23:31;20.00;93.90
39665;DHT22;26679;50.872;4.332;2023-04-08T14:26:00;20.20;94.50
39665;DHT22;26679;50.872;4.332;2023-04-08T14:28:26;19.70;95.00
39665;DHT22;26679;50.872;4.332;2023-04-08T14:30:55;19.20;95.40
39665;DHT22;26679;50.872;4.332;2023-04-08T14:33:23;18.00;95.40
39665;DHT22;26679;50.872;4.332;2023-04-08T14:35:49;18.70;95.80
39665;DHT22;26679;50.872;4.332;2023-04-08T14:38:16;18.20;95.80
39665;DHT22;26679;50.872;4.332;2023-04-08T14:40:44;18.70;96.20
39665;DHT22;26679;50.872;4.332;2023-04-08T14:43:13;17.80;96.40
39665;DHT22;26679;50.872;4.332;2023-04-08T14:45:39;18.00;96.50
39665;DHT22;26679;50.872;4.332;2023-04-08T14:48:09;17.70;96.70
39665;DHT22;26679;50.872;4.332;2023-04-08T14:50:34;17.50;96.80
39665;DHT22;26679;50.872;4.332;2023-04-08T14:53:02;17.70;97.20
39665;DHT22;26679;50.872;4.332;2023-04-08T14:55:27;17.60;97.50
39665;DHT22;26679;50.872;4.332;2023-04-08T14:57:56;17.50;97.90
39665;DHT22;26679;50.872;4.332;2023-04-08T15:00:22;16.90;98.20
39665;DHT22;26679;50.872;4.332;2023-04-08T15:02:48;16.80;98.30
39665;DHT22;26679;50.872;4.332;2023-04-08T15:05:14;17.00;98.30
39665;DHT22;26679;50.872;4.332;2023-04-08T15:07:40;17.70;98.50
39665;DHT22;26679;50.872;4.332;2023-04-08T15:10:07;17.20;98.20
39665;DHT22;26679;50.872;4.332;2023-04-08T15:12:34;16.60;98.30
39665;DHT22;26679;50.872;4.332;2023-04-08T15:15:00;17.20;98.70
39665;DHT22;26679;50.872;4.332;2023-04-08T15:17:29;16.80;98.50
39665;DHT22;26679;50.872;4.332;2023-04-08T15:19:55;17.10;98.50
39665;DHT22;26679;50.872;4.332;2023-04-08T15:22:20;17.40;98.50
39665;DHT22;26679;50.872;4.332;2023-04-08T15:24:46;17.30;98.20
39665;DHT22;26679;50.872;4.332;2023-04-08T15:27:15;17.40;98.20
39665;DHT22;26679;50.872;4.332;2023-04-08T15:29:41;17.60;98.20
39665;DHT22;26679;50.872;4.332;2023-04-08T15:32:07;17.70;98.00
39665;DHT22;26679;50.872;4.332;2023-04-08T15:34:38;17.80;97.90
39665;DHT22;26679;50.872;4.332;2023-04-08T15:37:06;18.10;97.40
39665;DHT22;26679;50.872;4.332;2023-04-08T15:39:32;18.00;97.10
39665;DHT22;26679;50.872;4.332;2023-04-08T15:42:00;17.10;97.40
39665;DHT22;26679;50.872;4.332;2023-04-08T15:44:29;16.90;97.20
39665;DHT22;26679;50.872;4.332;2023-04-08T15:46:55;16.00;97.20
39665;DHT22;26679;50.872;4.332;2023-04-08T15:49:26;16.60;97.60
39665;DHT22;26679;50.872;4.332;2023-04-08T15:52:04;15.70;97.60
39665;DHT22;26679;50.872;4.332;2023-04-08T15:54:36;16.30;97.70
39665;DHT22;26679;50.872;4.332;2023-04-08T15:57:01;16.20;97.60
39665;DHT22;26679;50.872;4.332;2023-04-08T15:59:30;16.00;98.10
39665;DHT22;26679;50.872;4.332;2023-04-08T16:01:55;15.60;97.80
39665;DHT22;26679;50.872;4.332;2023-04-08T16:04:21;16.40;98.00
39665;DHT22;26679;50.872;4.332;2023-04-08T16:06:49;17.60;98.20
39665;DHT22;26679;50.872;4.332;2023-04-08T16:09:15;16.30;97.60
39665;DHT22;26679;50.872;4.332;2023-04-08T16:11:43;16.00;97.50
39665;DHT22;26679;50.872;4.332;2023-04-08T16:14:09;15.90;97.90
39665;DHT22;26679;50.872;4.332;2023-04-08T16:16:37;15.70;98.10
39665;DHT22;26679;50.872;4.332;2023-04-08T16:19:03;15.10;98.10
39665;DHT22;26679;50.872;4.332;2023-04-08T16:21:34;15.40;97.70
39665;DHT22;26679;50.872;4.332;2023-04-08T16:24:00;15.30;97.40
39665;DHT22;26679;50.872;4.332;2023-04-08T16:26:26;16.50;98.40
39665;DHT22;26679;50.872;4.332;2023-04-08T16:28:52;15.00;98.20
39665;DHT22;26679;50.872;4.332;2023-04-08T16:31:21;14.80;98.10
39665;DHT22;26679;50.872;4.332;2023-04-08T16:36:23;16.90;98.80
39665;DHT22;26679;50.872;4.332;2023-04-08T16:38:51;16.70;98.80
39665;DHT22;26679;50.872;4.332;2023-04-08T16:41:19;16.50;98.00
39665;DHT22;26679;50.872;4.332;2023-04-08T16:43:45;16.20;97.50
39665;DHT22;26679;50.872;4.332;2023-04-08T16:46:11;18.00;97.90
39665;DHT22;26679;50.872;4.332;2023-04-08T16:48:37;16.50;97.30
39665;DHT22;26679;50.872;4.332;2023-04-08T16:51:06;16.50;97.50
39665;DHT22;26679;50.872;4.332;2023-04-08T16:53:35;16.50;97.30